Accueil
METAR-TAF:

METAR-TAF

Aéroports :

Aéroport international Fuaʻamotu

Tongatapu, Tonga

latitude: 21-14S, longitude: 175-09W, altitude: 38 m

Observation

Le bulletin a été fait il y a 45 minutes, à 22:00 UTC
Vent 11 kt de est
Température 26°C
Humidité 65%
Pression 1018 hPa
Visibilité 10 km ou plus
Quelques nuages à une hauteur de 1800 ft
Nuages fragmentés à une hauteur de 11000 ft

METAR: NFTF 212200Z 10011KT 9999 FEW018 BKN110 26/19 Q1018

Heure: 11:45 (22:45 UTC)

Prévision

Le bulletin a été fait il y a 5 heures et 34 minutes, à 17:11 UTC
Prévision valable du 21 à 18 UTC au 22 à 18 UTC
Vent 7 kt de est/sud-est
Visibilité 10 km ou plus
Quelques nuages à une hauteur de 1600 ft
Nuages fragmentés à une hauteur de 3000 ft

TAF: NFTF 211711Z 2118/2218 11007KT 9999 FEW016 BKN030

Observations et prévisions météorologiques de plus de 4000 aéroports (messages METAR et TAF).

Les stations disponibles sont représentées par des disques jaunes et rouges sur la carte.

Passer la souris dessus pour voir le nom de la station.

Cliquer dessus pour voir les observations et prévisions météorologiques.

Pour changer de carte: cliquez sur les boutons verts avec une croix noire pour zoomer, sur le bouton vert avec un tiret pour effectuer un zoom arrière, ou sur les flèches vertes pour les cartes adjacentes.


METAR-TAF: